Time;durP1;ratioP1;P1;durP2;ratioP2;P2;SDS_P1;SDS_P2;PMS_P1;PMS_P2;Temp;Humidity;BMP_temperature;BMP_pressure;BME280_temperature;BME280_humidity;BME280_pressure;Samples;Min_cycle;Max_cycle;Signal;HPM_P1;HPM_P2
2023/07/21 00:00:13;;;;;;;8.65;7.32;;;;;;;23.16;100.00;-18370.88;5074307;28;20573;-67
2023/07/21 00:02:41;;;;;;;8.07;7.50;;;;;;;23.08;100.00;-18369.00;5074228;28;20185;-65
2023/07/21 00:05:09;;;;;;;11.65;7.80;;;;;;;23.05;100.00;-18368.28;5074309;28;20627;-66
2023/07/21 00:07:36;;;;;;;9.38;8.27;;;;;;;23.07;100.00;-18368.63;5074362;28;20228;-66
2023/07/21 00:10:07;;;;;;;11.10;10.23;;;;;;;23.04;100.00;-18368.03;5073127;28;20185;-66
2023/07/21 00:12:36;;;;;;;12.90;11.68;;;;;;;22.95;100.00;-18365.91;5073994;28;20189;-66
2023/07/21 00:15:04;;;;;;;13.55;10.98;;;;;;;23.03;100.00;-18367.81;5074017;28;20559;-66
2023/07/21 00:17:32;;;;;;;14.10;10.93;;;;;;;23.00;100.00;-18367.09;5074007;28;20654;-66
2023/07/21 00:20:09;;;;;;;11.55;10.57;;;;;;;23.02;100.00;-18367.56;5073624;28;20192;-66
2023/07/21 00:22:35;;;;;;;11.85;9.80;;;;;;;23.02;100.00;-18367.56;5073819;28;20188;-67
2023/07/21 00:25:05;;;;;;;11.52;10.38;;;;;;;23.12;100.00;-18369.94;5073998;28;20268;-67
2023/07/21 00:27:32;;;;;;;11.25;10.25;;;;;;;23.11;100.00;-18369.69;5073792;28;20191;-66
2023/07/21 00:30:01;;;;;;;10.02;9.43;;;;;;;23.02;100.00;-18367.56;5073444;28;20242;-66
2023/07/21 00:32:31;;;;;;;16.05;11.35;;;;;;;23.04;100.00;-18368.03;5073443;28;20227;-66
2023/07/21 00:34:58;;;;;;;28.80;12.15;;;;;;;23.07;100.00;-18368.63;5073793;28;20251;-66
2023/07/21 00:37:25;;;;;;;21.67;11.85;;;;;;;23.09;100.00;-18369.22;5073569;28;20306;-66
2023/07/21 00:39:52;;;;;;;16.17;12.02;;;;;;;23.11;100.00;-18369.69;5073224;28;20185;-65
2023/07/21 00:42:20;;;;;;;14.23;11.80;;;;;;;23.09;100.00;-18369.09;5073093;28;20188;-67
2023/07/21 00:44:47;;;;;;;21.52;13.25;;;;;;;23.00;100.00;-18367.09;5073485;28;20213;-67
2023/07/21 00:47:16;;;;;;;12.98;11.88;;;;;;;22.94;100.00;-18365.66;5073623;28;20307;-65
2023/07/21 00:49:46;;;;;;;14.52;12.48;;;;;;;22.95;100.00;-18365.78;5073353;28;20184;-67
2023/07/21 00:52:17;;;;;;;20.10;13.75;;;;;;;22.91;100.00;-18364.94;5072944;28;20228;-66
2023/07/21 00:54:44;;;;;;;14.02;13.23;;;;;;;22.75;100.00;-18361.28;5073503;28;20189;-66
2023/07/21 00:57:11;;;;;;;13.70;12.57;;;;;;;22.42;100.00;-18353.31;5073240;28;20189;-66
2023/07/21 00:59:39;;;;;;;12.70;11.50;;;;;;;22.44;100.00;-18353.78;5073111;28;20196;-66
2023/07/21 01:02:06;;;;;;;11.82;10.77;;;;;;;22.50;100.00;-18355.31;5072940;28;20242;-66
2023/07/21 01:04:36;;;;;;;19.42;11.55;;;;;;;22.47;100.00;-18354.50;5073173;28;20632;-65
2023/07/21 01:07:05;;;;;;;12.18;9.60;;;;;;;22.57;100.00;-18357.00;5073289;28;20570;-65
2023/07/21 01:09:35;;;;;;;9.77;8.98;;;;;;;22.69;100.00;-18359.72;5073121;28;20280;-65
2023/07/21 01:12:04;;;;;;;10.00;8.98;;;;;;;22.85;100.00;-18363.53;5072563;28;20310;-65
2023/07/21 01:14:31;;;;;;;10.02;9.25;;;;;;;23.01;100.00;-18367.31;5072839;28;20195;-66
2023/07/21 01:17:00;;;;;;;9.35;8.75;;;;;;;23.03;100.00;-18367.81;5072624;28;20189;-66
2023/07/21 01:19:29;;;;;;;9.80;8.98;;;;;;;23.20;100.00;-18371.72;5072819;28;20555;-65
2023/07/21 01:22:04;;;;;;;13.60;10.85;;;;;;;23.33;100.00;-18374.81;5072031;28;20654;-66
2023/07/21 01:24:40;;;;;;;10.98;9.75;;;;;;;23.39;100.00;-18376.09;5072946;28;20183;-65
2023/07/21 01:27:11;;;;;;;11.02;9.85;;;;;;;23.39;100.00;-18376.09;5072388;28;20283;-65
2023/07/21 01:29:41;;;;;;;11.48;10.50;;;;;;;23.45;100.00;-18377.66;5072240;28;20185;-66
2023/07/21 01:32:10;;;;;;;8.90;8.48;;;;;;;23.37;100.00;-18375.63;5072331;28;20205;-66
2023/07/21 01:34:38;;;;;;;10.60;9.75;;;;;;;23.51;100.00;-18378.97;5072714;28;20189;-67
2023/07/21 01:37:08;;;;;;;10.00;9.23;;;;;;;23.38;100.00;-18375.88;5072297;28;20195;-66
2023/07/21 01:39:36;;;;;;;10.63;9.45;;;;;;;23.59;100.00;-18380.84;5072720;28;20191;-66
2023/07/21 01:42:05;;;;;;;9.40;8.77;;;;;;;23.38;100.00;-18375.88;5072667;28;20609;-66
2023/07/21 01:44:33;;;;;;;10.80;8.63;;;;;;;23.48;100.00;-18378.38;5072397;28;20639;-67
2023/07/21 01:47:00;;;;;;;8.48;7.75;;;;;;;23.64;100.00;-18382.16;5072176;28;20674;-65
2023/07/21 01:49:27;;;;;;;9.98;9.05;;;;;;;23.72;100.00;-18383.94;5072034;28;20185;-65
2023/07/21 01:51:57;;;;;;;9.65;8.82;;;;;;;23.65;100.00;-18382.28;5071833;28;20255;-66
2023/07/21 01:54:31;;;;;;;8.80;8.07;;;;;;;23.58;100.00;-18380.63;5071888;28;20284;-64
2023/07/21 01:57:06;;;;;;;10.48;8.52;;;;;;;23.68;100.00;-18383.09;5072004;28;20276;-66
2023/07/21 01:59:34;;;;;;;11.98;9.57;;;;;;;23.71;100.00;-18383.69;5072044;28;20326;-66
2023/07/21 02:02:02;;;;;;;10.60;8.80;;;;;;;23.62;100.00;-18381.56;5071582;28;20188;-65
2023/07/21 02:04:29;;;;;;;13.77;8.65;;;;;;;23.56;100.00;-18380.16;5071648;28;20280;-65
2023/07/21 02:06:56;;;;;;;13.43;8.88;;;;;;;23.62;100.00;-18381.69;5072014;28;20559;-65
2023/07/21 02:09:24;;;;;;;11.05;8.05;;;;;;;23.59;100.00;-18380.84;5071630;28;20184;-64
2023/07/21 02:11:50;;;;;;;9.38;8.85;;;;;;;23.58;100.00;-18380.63;5071492;28;20204;-65
2023/07/21 02:14:18;;;;;;;9.60;8.65;;;;;;;23.46;100.00;-18377.78;5071748;28;20623;-64
2023/07/21 02:16:46;;;;;;;10.63;8.88;;;;;;;23.44;100.00;-18377.28;5071732;28;20188;-66
2023/07/21 02:19:14;;;;;;;9.90;8.43;;;;;;;23.34;100.00;-18374.94;5071353;28;20177;-65
2023/07/21 02:21:41;;;;;;;10.63;9.10;;;;;;;23.30;100.00;-18373.97;5071415;28;20215;-66
2023/07/21 02:24:08;;;;;;;9.38;8.43;;;;;;;23.29;100.00;-18373.75;5071387;28;20200;-65
2023/07/21 02:26:35;;;;;;;9.23;7.90;;;;;;;23.28;100.00;-18373.63;5071770;28;20650;-66
2023/07/21 02:29:02;;;;;;;8.95;8.30;;;;;;;23.26;100.00;-18373.03;5071345;28;20189;-66
2023/07/21 02:31:29;;;;;;;8.88;8.10;;;;;;;23.05;100.00;-18368.28;5071271;28;20270;-65
2023/07/21 02:33:57;;;;;;;8.05;7.50;;;;;;;23.07;100.00;-18368.63;5070951;28;20196;-66
2023/07/21 02:36:24;;;;;;;8.98;8.32;;;;;;;23.10;100.00;-18369.34;5071209;28;20185;-64
2023/07/21 02:38:50;;;;;;;8.65;8.15;;;;;;;22.93;100.00;-18365.44;5071433;28;20647;-65
2023/07/21 02:41:17;;;;;;;12.35;8.98;;;;;;;23.12;100.00;-18369.81;5071419;28;20188;-65
2023/07/21 02:43:44;;;;;;;9.10;8.63;;;;;;;23.13;100.00;-18370.16;5071460;28;20197;-65
2023/07/21 02:46:11;;;;;;;13.43;9.32;;;;;;;23.10;100.00;-18369.47;5071205;28;20196;-65
2023/07/21 02:48:38;;;;;;;34.85;11.05;;;;;;;23.11;100.00;-18369.59;5071070;28;20275;-65
2023/07/21 02:51:07;;;;;;;10.45;9.52;;;;;;;23.05;100.00;-18368.28;5070865;28;20224;-66
2023/07/21 02:53:33;;;;;;;10.48;8.90;;;;;;;23.13;100.00;-18370.16;5071049;28;20654;-65
2023/07/21 02:56:01;;;;;;;8.90;8.30;;;;;;;22.90;100.00;-18364.72;5071344;28;20709;-65
2023/07/21 02:58:28;;;;;;;14.20;9.25;;;;;;;23.05;100.00;-18368.28;5071437;28;20185;-65
2023/07/21 03:00:56;;;;;;;15.48;11.73;;;;;;;23.09;100.00;-18369.09;5071211;28;20216;-65
2023/07/21 03:03:25;;;;;;;15.15;12.00;;;;;;;22.98;100.00;-18366.50;5071165;28;20200;-65
2023/07/21 03:05:52;;;;;;;12.95;11.65;;;;;;;22.88;100.00;-18364.25;5071249;28;20181;-64
2023/07/21 03:08:26;;;;;;;12.88;10.95;;;;;;;22.87;100.00;-18364.00;5071181;28;20262;-66
2023/07/21 03:10:54;;;;;;;14.13;12.20;;;;;;;22.91;100.00;-18364.84;5071225;28;20643;-65
2023/07/21 03:13:20;;;;;;;14.80;13.50;;;;;;;;;;5071141;28;20191;-65
2023/07/21 03:15:47;;;;;;;12.98;11.85;;;;;;;23.03;100.00;-18367.81;5071249;28;20260;-66
2023/07/21 03:18:14;;;;;;;19.45;15.98;;;;;;;22.97;100.00;-18366.38;5071158;28;20184;-65
2023/07/21 03:20:41;;;;;;;25.90;17.55;;;;;;;23.06;100.00;-18368.50;5071038;28;20288;-65
2023/07/21 03:23:07;;;;;;;23.17;19.70;;;;;;;23.08;100.00;-18368.88;5070887;28;20185;-65
2023/07/21 03:25:37;;;;;;;22.83;18.02;;;;;;;23.31;100.00;-18374.22;5070706;28;20180;-65
2023/07/21 03:28:04;;;;;;;17.33;15.73;;;;;;;23.86;100.00;-12538.22;5070693;28;20185;-65
2023/07/21 03:30:31;;;;;;;20.30;15.02;;;;;;;24.21;100.00;-1790.16;5070647;28;20195;-66
2023/07/21 03:32:58;;;;;;;22.75;15.07;;;;;;;24.91;100.00;6390.72;5070908;28;20662;-65
2023/07/21 03:35:25;;;;;;;17.92;14.85;;;;;;;24.99;100.00;27425.69;5070918;28;20181;-65
2023/07/21 03:37:52;;;;;;;25.42;14.75;;;;;;;24.77;100.00;25437.81;5070740;28;20185;-65
2023/07/21 03:40:19;;;;;;;21.95;14.98;;;;;;;24.70;100.00;14912.09;5070624;28;20195;-65
2023/07/21 03:42:47;;;;;;;14.55;13.20;;;;;;;24.69;100.00;16553.84;5070870;28;20197;-65
2023/07/21 03:45:14;;;;;;;15.40;13.85;;;;;;;24.82;100.00;20831.47;5071839;28;20204;-65
2023/07/21 03:47:41;;;;;;;15.63;13.68;;;;;;;24.72;100.00;16226.34;5056974;28;20664;-64
2023/07/21 03:50:09;;;;;;;17.50;13.55;;;;;;;25.07;100.00;29408.16;5074461;28;20187;-65
2023/07/21 03:52:36;;;;;;;14.98;13.00;;;;;;;25.26;100.00;34703.19;5073981;28;20232;-64
2023/07/21 03:55:03;;;;;;;13.88;11.35;;;;;;;25.06;100.00;32378.25;5074245;28;20188;-65
2023/07/21 03:57:30;;;;;;;12.95;11.48;;;;;;;25.25;100.00;32059.25;5074449;28;20627;-65
2023/07/21 03:59:58;;;;;;;13.38;10.70;;;;;;;25.68;100.00;53968.75;5074051;28;20185;-65
2023/07/21 04:02:25;;;;;;;17.80;12.32;;;;;;;25.82;100.00;67651.25;5074242;28;20598;-66
2023/07/21 04:04:53;;;;;;;17.88;11.25;;;;;;;25.76;100.00;73328.56;5073928;28;20216;-65
2023/07/21 04:07:21;;;;;;;11.43;10.40;;;;;;;25.79;100.00;104256.22;5074708;28;20647;-68
2023/07/21 04:09:48;;;;;;;13.20;12.00;;;;;;;26.20;100.00;100275.34;5074037;28;20201;-65
2023/07/21 04:12:15;;;;;;;13.98;11.25;;;;;;;26.20;100.00;115154.56;5073299;28;20606;-65
2023/07/21 04:14:41;;;;;;;12.27;11.13;;;;;;;26.29;100.00;109415.41;5074174;28;20188;-65
2023/07/21 04:17:11;;;;;;;8.80;8.23;;;;;;;26.43;100.00;122325.97;5073835;28;20189;-65
2023/07/21 04:19:38;;;;;;;14.63;10.27;;;;;;;26.20;100.00;117866.84;5073664;28;20215;-65
2023/07/21 04:22:05;;;;;;;12.43;10.52;;;;;;;26.32;100.00;108743.25;5073734;28;20533;-65
2023/07/21 04:24:33;;;;;;;11.10;10.02;;;;;;;26.52;100.00;151808.97;5073981;28;20181;-64
2023/07/21 04:27:00;;;;;;;15.20;11.55;;;;;;;26.91;100.00;146471.47;5073834;28;20240;-65
2023/07/21 04:29:27;;;;;;;12.07;8.70;;;;;;;26.96;100.00;152822.44;5073535;28;20185;-65
2023/07/21 04:31:54;;;;;;;12.07;8.95;;;;;;;26.74;100.00;152767.38;5074033;28;20244;-66
2023/07/21 04:34:22;;;;;;;9.48;8.63;;;;;;;26.47;100.00;142434.81;5073475;28;20193;-65
2023/07/21 04:36:49;;;;;;;9.15;8.55;;;;;;;26.44;100.00;152689.41;5073457;28;20180;-65
2023/07/21 04:39:16;;;;;;;13.13;8.77;;;;;;;26.25;100.00;146399.00;5073618;28;20185;-65
2023/07/21 04:41:43;;;;;;;8.90;8.13;;;;;;;26.40;100.00;134911.22;5073394;28;20181;-65
2023/07/21 04:44:10;;;;;;;10.40;8.57;;;;;;;26.49;100.00;145565.38;5073500;28;20188;-65
2023/07/21 04:46:37;;;;;;;9.95;8.23;;;;;;;26.62;100.00;152735.41;5073279;28;20192;-65
2023/07/21 04:49:09;;;;;;;10.90;8.40;;;;;;;26.79;100.00;152780.19;5073041;28;20188;-65
2023/07/21 04:51:37;;;;;;;8.35;7.85;;;;;;;27.02;100.00;152837.78;5072890;28;20286;-64
2023/07/21 04:54:04;;;;;;;8.10;7.38;;;;;;;27.22;100.00;152888.97;5073461;28;20188;-65
2023/07/21 04:56:31;;;;;;;8.00;7.03;;;;;;;27.24;100.00;152894.03;5073218;28;20690;-65
2023/07/21 04:58:58;;;;;;;8.57;7.20;;;;;;;27.27;100.00;152900.47;5073233;28;20185;-65
2023/07/21 05:01:24;;;;;;;6.93;6.38;;;;;;;27.64;100.00;152993.91;5073089;28;20204;-65
2023/07/21 05:03:51;;;;;;;7.97;7.47;;;;;;;27.77;100.00;153027.19;5072717;28;20655;-65
2023/07/21 05:06:18;;;;;;;8.80;6.18;;;;;;;27.99;100.00;153082.22;5073262;28;20200;-64
2023/07/21 05:08:46;;;;;;;12.10;7.80;;;;;;;27.92;100.00;153064.31;5073149;28;20601;-65
2023/07/21 05:11:13;;;;;;;8.43;7.63;;;;;;;28.01;100.00;153088.59;5073141;28;20192;-64
2023/07/21 05:13:40;;;;;;;7.15;6.53;;;;;;;28.20;100.00;153136.03;5073024;28;20619;-64
2023/07/21 05:16:07;;;;;;;13.02;6.55;;;;;;;28.44;100.00;153196.16;5072554;28;20180;-65
2023/07/21 05:18:34;;;;;;;9.15;6.80;;;;;;;28.60;100.00;153238.41;5072617;28;20191;-64
2023/07/21 05:21:01;;;;;;;7.18;6.38;;;;;;;28.75;100.00;153274.34;5072944;28;20189;-63
2023/07/21 05:23:28;;;;;;;13.02;6.68;;;;;;;28.88;100.00;153307.63;5072410;28;20187;-63
2023/07/21 05:26:01;;;;;;;7.18;6.22;;;;;;;29.06;100.00;153353.75;5072374;28;20220;-63
2023/07/21 05:28:28;;;;;;;6.20;5.88;;;;;;;29.02;100.00;153343.50;5072249;28;20267;-62
2023/07/21 05:30:55;;;;;;;6.63;6.13;;;;;;;29.47;100.00;153458.81;5072467;28;20554;-63
2023/07/21 05:33:22;;;;;;;7.00;6.68;;;;;;;29.59;100.00;153488.28;5072080;28;20208;-65
2023/07/21 05:35:49;;;;;;;6.38;5.68;;;;;;;29.59;100.00;153488.28;5072575;28;20203;-66
2023/07/21 05:38:16;;;;;;;6.63;6.00;;;;;;;29.88;100.00;153562.63;5072323;28;20623;-64
2023/07/21 05:40:42;;;;;;;9.25;5.90;;;;;;;30.03;100.00;153598.53;5072230;28;20643;-65
2023/07/21 05:43:11;;;;;;;5.90;5.50;;;;;;;30.18;100.00;153636.94;5073010;28;20191;-66
2023/07/21 05:45:39;;;;;;;11.80;5.65;;;;;;;30.60;100.00;153744.66;5073596;28;20195;-65
2023/07/21 05:48:09;;;;;;;5.70;5.28;;;;;;;30.96;100.00;153835.72;5074940;28;20634;-66
2023/07/21 05:50:37;;;;;;;6.15;5.75;;;;;;;31.02;100.00;153851.13;5073369;28;20188;-65
2023/07/21 05:53:04;;;;;;;31.40;8.50;;;;;;;31.23;100.00;153903.75;5072447;28;20232;-65
2023/07/21 05:55:31;;;;;;;6.20;5.65;;;;;;;31.22;100.00;153902.44;5072109;28;20185;-65
2023/07/21 05:57:58;;;;;;;5.40;5.20;;;;;;;31.19;100.00;153893.47;5071867;28;20188;-64
2023/07/21 06:00:26;;;;;;;20.90;11.90;;;;;;;31.39;100.00;153944.75;5071984;28;20189;-66
2023/07/21 06:02:53;;;;;;;8.73;5.03;;;;;;;31.12;100.00;153876.78;5071856;28;20227;-63
2023/07/21 06:05:20;;;;;;;5.13;4.93;;;;;;;31.09;100.00;153869.09;5072543;28;20593;-66
2023/07/21 06:07:49;;;;;;;6.18;5.60;;;;;;;30.60;100.00;153743.38;5072048;28;20283;-63
2023/07/21 06:10:16;;;;;;;5.88;5.47;;;;;;;30.64;100.00;153754.91;5072234;28;20189;-64
2023/07/21 06:12:43;;;;;;;5.75;4.88;;;;;;;30.22;100.00;153648.47;5072256;28;20221;-64
2023/07/21 06:15:10;;;;;;;5.20;4.90;;;;;;;30.23;100.00;153651.06;5053857;28;20189;-62
2023/07/21 06:17:39;;;;;;;4.60;4.30;;;;;;;31.02;100.00;153851.13;5072202;28;20201;-56
2023/07/21 06:20:09;;;;;;;9.55;7.18;;;;;;;31.48;100.00;153966.56;5072204;28;20596;-63
2023/07/21 06:22:36;;;;;;;5.65;5.25;;;;;;;31.40;100.00;153946.06;5071601;28;20196;-64
2023/07/21 06:25:03;;;;;;;11.88;6.15;;;;;;;32.11;100.00;154128.31;5071669;28;20189;-64
2023/07/21 06:27:30;;;;;;;14.32;7.03;;;;;;;32.49;100.00;154223.25;5071450;28;20279;-64
2023/07/21 06:29:57;;;;;;;9.63;5.53;;;;;;;32.69;100.00;154274.63;5070928;28;20306;-64
2023/07/21 06:32:24;;;;;;;6.60;5.32;;;;;;;32.66;100.00;154265.66;5053347;28;20201;-64
2023/07/21 06:34:53;;;;;;;6.07;5.53;;;;;;;32.52;100.00;154230.94;5071388;28;20181;-64
2023/07/21 06:37:20;;;;;;;6.10;5.70;;;;;;;32.09;100.00;154123.16;5071078;28;20266;-64
2023/07/21 06:39:48;;;;;;;10.57;5.45;;;;;;;32.05;100.00;154112.84;5071107;28;20200;-64
2023/07/21 06:42:15;;;;;;;6.53;5.93;;;;;;;32.35;100.00;154188.59;5071266;28;20188;-64
2023/07/21 06:44:42;;;;;;;6.20;5.63;;;;;;;33.11;100.00;154379.88;5070902;28;20185;-64
2023/07/21 06:47:10;;;;;;;7.65;5.78;;;;;;;33.65;100.00;154517.34;5071225;28;20189;-64
2023/07/21 06:49:38;;;;;;;6.38;5.68;;;;;;;33.62;100.00;154510.88;5071887;28;20249;-65
2023/07/21 06:52:08;;;;;;;6.13;5.57;;;;;;;34.16;100.00;154648.41;5071198;28;20692;-63
2023/07/21 06:54:36;;;;;;;7.10;5.60;;;;;;;34.12;100.00;154638.06;5071786;28;20368;-64
2023/07/21 06:57:02;;;;;;;5.50;5.20;;;;;;;33.93;100.00;154590.56;5071158;28;20249;-64
2023/07/21 06:59:30;;;;;;;5.28;5.07;;;;;;;32.81;100.00;154305.41;5070798;28;20275;-63
2023/07/21 07:01:58;;;;;;;5.30;4.90;;;;;;;32.57;100.00;154245.06;5071152;28;20613;-62
2023/07/21 07:04:26;;;;;;;5.10;4.90;;;;;;;31.96;100.00;154089.72;5071030;28;20275;-63
2023/07/21 07:06:55;;;;;;;5.47;5.18;;;;;;;32.43;100.00;154209.13;5071480;28;20852;-65
2023/07/21 07:09:24;;;;;;;6.95;5.30;;;;;;;32.10;100.00;154125.72;5071109;28;20192;-63
2023/07/21 07:11:51;;;;;;;4.97;4.78;;;;;;;32.59;100.00;154248.94;5070970;28;20247;-63
2023/07/21 07:14:18;;;;;;;9.52;5.38;;;;;;;33.28;100.00;154424.84;5053794;28;20220;-64
2023/07/21 07:16:45;;;;;;;8.63;5.82;;;;;;;33.02;100.00;154358.03;5071306;28;20192;-63
2023/07/21 07:19:12;;;;;;;5.70;5.40;;;;;;;32.87;100.00;154320.84;5071004;28;20197;-62
2023/07/21 07:21:39;;;;;;;5.40;5.07;;;;;;;32.53;100.00;154234.81;5074591;28;20195;-65
2023/07/21 07:24:06;;;;;;;5.72;5.53;;;;;;;32.53;100.00;154233.50;5074834;28;20631;-60
2023/07/21 07:26:34;;;;;;;6.10;5.55;;;;;;;31.90;100.00;154074.38;5056985;28;20600;-62
2023/07/21 07:29:03;;;;;;;4.95;4.75;;;;;;;31.87;100.00;154065.41;5075140;28;20395;-65
2023/07/21 07:31:36;;;;;;;5.32;4.93;;;;;;;32.00;100.00;154098.72;5074949;28;20659;-63
2023/07/21 07:34:04;;;;;;;5.82;5.43;;;;;;;31.82;100.00;154053.84;5074599;28;20201;-63
2023/07/21 07:36:31;;;;;;;5.03;4.82;;;;;;;31.85;100.00;154060.25;5075012;28;20185;-63
2023/07/21 07:38:57;;;;;;;5.45;5.15;;;;;;;31.82;100.00;154053.84;5073988;28;20188;-64
2023/07/21 07:41:24;;;;;;;6.30;5.90;;;;;;;31.98;100.00;154093.59;5075047;28;20625;-63
2023/07/21 07:43:53;;;;;;;5.55;5.10;;;;;;;31.57;100.00;153989.72;5075818;28;20181;-64
2023/07/21 07:46:22;;;;;;;6.20;5.68;;;;;;;31.78;100.00;154043.59;5074778;28;20189;-63
2023/07/21 07:48:48;;;;;;;5.53;5.18;;;;;;;32.16;100.00;154139.84;5074249;28;20190;-63
2023/07/21 07:51:15;;;;;;;5.82;5.43;;;;;;;31.88;100.00;154067.91;5074502;28;20591;-63
2023/07/21 07:53:42;;;;;;;5.63;5.35;;;;;;;32.07;100.00;154118.00;5074977;28;20579;-64
2023/07/21 07:56:14;;;;;;;9.90;6.22;;;;;;;32.57;100.00;154243.78;5074499;28;20183;-65
2023/07/21 07:58:41;;;;;;;11.65;6.55;;;;;;;32.74;100.00;154287.47;5074633;28;20598;-65
2023/07/21 08:01:12;;;;;;;9.27;7.38;;;;;;;32.70;100.00;154277.19;5074168;28;20188;-65
2023/07/21 08:03:43;;;;;;;7.05;6.45;;;;;;;32.80;100.00;154302.88;5074239;28;20193;-64
2023/07/21 08:06:11;;;;;;;8.50;7.25;;;;;;;33.05;100.00;154365.78;5057602;28;20211;-65
2023/07/21 08:08:42;;;;;;;12.63;7.47;;;;;;;32.81;100.00;154305.41;5074652;28;20189;-66
2023/07/21 08:11:09;;;;;;;7.38;6.80;;;;;;;32.87;100.00;154320.84;5074082;28;20196;-65
2023/07/21 08:13:36;;;;;;;7.28;6.57;;;;;;;33.21;100.00;154405.59;5074158;28;20201;-65
2023/07/21 08:16:10;;;;;;;9.45;7.30;;;;;;;33.85;100.00;154570.03;5074432;28;20715;-64
2023/07/21 08:18:37;;;;;;;11.55;6.80;;;;;;;33.72;100.00;154536.63;5074431;28;20189;-64
2023/07/21 08:21:17;;;;;;;7.63;6.40;;;;;;;33.63;100.00;154512.19;5074546;28;20203;-65
2023/07/21 08:23:44;;;;;;;7.88;6.95;;;;;;;33.19;100.00;154401.75;5074291;28;20654;-65
2023/07/21 08:26:11;;;;;;;10.75;7.80;;;;;;;32.99;100.00;154351.66;5074222;28;20283;-66
2023/07/21 08:28:38;;;;;;;6.72;6.18;;;;;;;32.97;100.00;154345.25;5074103;28;20569;-66
2023/07/21 08:31:05;;;;;;;7.63;6.88;;;;;;;32.66;100.00;154266.94;5073467;28;20208;-65
2023/07/21 08:33:33;;;;;;;9.77;6.15;;;;;;;32.40;100.00;154201.44;5073593;28;20228;-64
2023/07/21 08:36:00;;;;;;;10.45;6.60;;;;;;;32.06;100.00;154115.41;5073785;28;20195;-68
2023/07/21 08:38:26;;;;;;;6.97;6.25;;;;;;;31.77;100.00;154039.72;5073485;28;20185;-63
2023/07/21 08:41:00;;;;;;;6.60;6.07;;;;;;;31.61;100.00;153999.97;5073824;28;20655;-66
2023/07/21 08:43:29;;;;;;;6.25;5.95;;;;;;;31.42;100.00;153951.16;5073609;28;20216;-64
2023/07/21 08:46:00;;;;;;;6.15;5.60;;;;;;;31.26;100.00;153912.72;5055792;28;20199;-63
2023/07/21 08:48:27;;;;;;;6.70;5.85;;;;;;;30.50;100.00;153719.06;5073142;28;20192;-67
2023/07/21 08:50:56;;;;;;;8.52;6.68;;;;;;;31.10;100.00;153870.41;5073442;28;20570;-66
2023/07/21 08:53:24;;;;;;;6.45;5.97;;;;;;;31.31;100.00;153922.97;5073276;28;20205;-66
2023/07/21 08:55:56;;;;;;;24.23;8.60;;;;;;;31.58;100.00;153992.25;5073581;28;20196;-66
2023/07/21 08:58:24;;;;;;;7.40;6.35;;;;;;;31.47;100.00;153964.00;5073612;28;20181;-65
2023/07/21 09:00:52;;;;;;;7.80;6.90;;;;;;;31.42;100.00;153951.16;5073564;28;20275;-65
2023/07/21 09:03:23;;;;;;;7.28;6.70;;;;;;;31.39;100.00;153943.47;5073294;28;20184;-66
2023/07/21 09:05:51;;;;;;;6.45;6.05;;;;;;;31.02;100.00;153851.13;5073541;28;20219;-64
2023/07/21 09:08:23;;;;;;;9.23;7.20;;;;;;;31.10;100.00;153871.69;5073166;28;20258;-64
2023/07/21 09:10:50;;;;;;;7.47;6.35;;;;;;;30.83;100.00;153803.66;5072770;28;20190;-65
2023/07/21 09:13:19;;;;;;;7.05;5.95;;;;;;;30.71;100.00;153772.91;5072982;28;20209;-66
2023/07/21 09:15:53;;;;;;;7.15;6.50;;;;;;;30.81;100.00;153797.22;5073338;28;20279;-64
2023/07/21 09:18:25;;;;;;;6.88;6.32;;;;;;;31.12;100.00;153875.50;5072834;28;20191;-64
2023/07/21 09:20:52;;;;;;;7.03;6.43;;;;;;;30.87;100.00;153812.63;5073018;28;20210;-63
2023/07/21 09:23:20;;;;;;;6.78;6.25;;;;;;;30.75;100.00;153783.16;5073328;28;20693;-63
2023/07/21 09:25:53;;;;;;;7.68;7.13;;;;;;;30.71;100.00;153771.59;5072597;28;20657;-64
2023/07/21 09:28:20;;;;;;;8.05;6.53;;;;;;;30.92;100.00;153825.47;5073112;28;20623;-67
2023/07/21 09:30:54;;;;;;;8.43;7.32;;;;;;;31.31;100.00;153922.97;5072277;28;20192;-65
2023/07/21 09:33:25;;;;;;;6.72;6.43;;;;;;;31.69;100.00;154021.78;5072462;28;20201;-68
2023/07/21 09:36:04;;;;;;;9.50;7.22;;;;;;;32.12;100.00;154130.84;5074494;28;20185;-69
2023/07/21 09:38:31;;;;;;;7.78;7.20;;;;;;;32.23;100.00;154157.81;5072509;28;20210;-68
2023/07/21 09:41:03;;;;;;;6.18;5.82;;;;;;;31.96;100.00;154089.72;5073129;28;20662;-67
2023/07/21 09:43:30;;;;;;;12.70;6.70;;;;;;;31.63;100.00;154005.06;5071930;28;20583;-69
2023/07/21 09:46:00;;;;;;;8.48;7.60;;;;;;;31.71;100.00;154025.59;5073038;28;20631;-68
2023/07/21 09:48:37;;;;;;;9.18;6.07;;;;;;;31.45;100.00;153960.13;5073512;28;20629;-68
2023/07/21 09:51:07;;;;;;;7.05;6.40;;;;;;;31.60;100.00;153997.41;5072068;28;20290;-68
2023/07/21 09:53:37;;;;;;;6.70;6.18;;;;;;;31.61;100.00;154001.25;5072216;28;20210;-69
2023/07/21 09:56:07;;;;;;;8.18;7.45;;;;;;;31.50;100.00;153971.69;5071767;28;20191;-71
2023/07/21 09:58:37;;;;;;;6.22;5.75;;;;;;;31.27;100.00;153914.00;5070995;28;20184;-68
2023/07/21 10:01:05;;;;;;;6.55;6.20;;;;;;;31.19;100.00;153894.72;5071849;28;20181;-69
2023/07/21 10:03:34;;;;;;;6.82;6.53;;;;;;;30.93;100.00;153828.03;5073888;28;20192;-68
2023/07/21 10:06:03;;;;;;;7.03;6.57;;;;;;;31.15;100.00;153884.47;5071769;28;20643;-70
2023/07/21 10:08:31;;;;;;;7.20;6.80;;;;;;;31.53;100.00;153979.41;5070298;28;20654;-69
2023/07/21 10:10:59;;;;;;;7.55;6.68;;;;;;;31.53;100.00;153979.41;5072251;28;20264;-70
2023/07/21 10:13:29;;;;;;;6.93;6.53;;;;;;;31.68;100.00;154017.91;5071534;28;20267;-68
2023/07/21 10:16:00;;;;;;;7.85;6.85;;;;;;;31.58;100.00;153992.25;5071652;28;20185;-72
2023/07/21 10:18:27;;;;;;;7.43;6.88;;;;;;;31.77;100.00;154041.00;5070745;28;20188;-65
2023/07/21 10:20:56;;;;;;;5.95;5.65;;;;;;;31.79;100.00;154044.81;5071670;28;20189;-65
2023/07/21 10:23:25;;;;;;;7.30;6.65;;;;;;;31.97;100.00;154091.03;5071445;28;20193;-63
2023/07/21 10:25:57;;;;;;;6.03;5.53;;;;;;;32.00;100.00;154100.00;5071393;28;20204;-66
2023/07/21 10:28:31;;;;;;;6.28;5.75;;;;;;;32.11;100.00;154127.00;5070994;28;20188;-69
2023/07/21 10:31:30;;;;;;;7.03;6.50;;;;;;;31.87;100.00;154066.63;5071326;28;20189;-65
2023/07/21 10:34:05;;;;;;;6.22;5.78;;;;;;;31.81;100.00;154051.28;5071116;28;20205;-66
2023/07/21 10:36:56;;;;;;;7.20;6.70;;;;;;;31.47;100.00;153964.00;5071239;28;20283;-65
2023/07/21 10:39:24;;;;;;;6.88;6.38;;;;;;;31.22;100.00;153902.44;5071668;28;20551;-65
2023/07/21 10:41:53;;;;;;;7.28;6.78;;;;;;;31.22;100.00;153901.16;5053701;28;20537;-69
2023/07/21 10:44:21;;;;;;;6.90;6.40;;;;;;;31.00;100.00;153846.03;5071202;28;20212;-64
2023/07/21 10:46:50;;;;;;;6.30;5.75;;;;;;;31.14;100.00;153880.66;5071187;28;20272;-65
2023/07/21 10:49:19;;;;;;;6.35;5.95;;;;;;;31.19;100.00;153894.72;5071189;28;20184;-68
2023/07/21 10:51:47;;;;;;;9.60;6.18;;;;;;;31.15;100.00;153884.47;5062031;28;20228;-64
2023/07/21 10:54:15;;;;;;;6.93;6.13;;;;;;;30.98;100.00;153840.81;5052464;28;20209;-64
2023/07/21 10:56:43;;;;;;;12.55;6.55;;;;;;;31.00;100.00;153846.03;5055192;28;20239;-66
2023/07/21 10:59:10;;;;;;;9.50;6.65;;;;;;;30.85;100.00;153807.53;5055327;28;20189;-65
2023/07/21 11:01:41;;;;;;;6.97;6.38;;;;;;;30.66;100.00;153758.78;5055076;28;20273;-64
2023/07/21 11:04:11;;;;;;;6.43;5.90;;;;;;;30.45;100.00;153704.94;5055296;28;20290;-65
2023/07/21 11:06:41;;;;;;;6.07;5.78;;;;;;;30.35;100.00;153680.53;5055224;28;20236;-64
2023/07/21 11:09:11;;;;;;;7.18;6.32;;;;;;;30.00;100.00;153592.13;5055351;28;20658;-64
2023/07/21 11:11:40;;;;;;;11.02;6.10;;;;;;;30.13;100.00;153624.19;5055773;28;20526;-67
2023/07/21 11:14:11;;;;;;;6.03;5.68;;;;;;;29.90;100.00;153567.78;5054645;28;20227;-65
2023/07/21 11:16:43;;;;;;;7.45;6.35;;;;;;;29.51;100.00;153467.78;5054927;28;20244;-67
2023/07/21 11:19:11;;;;;;;7.28;6.45;;;;;;;29.64;100.00;153499.81;5055122;28;20185;-65